Time;durP1;ratioP1;P1;durP2;ratioP2;P2;SDS_P1;SDS_P2;PMS_P1;PMS_P2;Temp;Humidity;BMP_temperature;BMP_pressure;BME280_temperature;BME280_humidity;BME280_pressure;Samples;Min_cycle;Max_cycle;Signal;HPM_P1;HPM_P2
2022/06/24 00:01:56;;;;;;;3.70;1.10;;;;;;;18.23;100.00;98235.25;5035700;28;20470;-69
2022/06/24 00:04:26;;;;;;;4.97;1.48;;;;;;;18.23;100.00;98228.97;5032286;28;20042;-69
2022/06/24 00:06:53;;;;;;;3.65;1.20;;;;;;;18.14;100.00;98224.00;5024900;28;20104;-69
2022/06/24 00:09:18;;;;;;;7.38;1.65;;;;;;;18.04;100.00;98209.44;5038266;28;20036;-69
2022/06/24 00:11:44;;;;;;;4.07;1.23;;;;;;;18.25;100.00;98224.88;5032191;28;20025;-69
2022/06/24 00:14:12;;;;;;;7.22;1.60;;;;;;;18.23;100.00;98196.09;5039006;28;20052;-69
2022/06/24 00:16:59;;;;;;;4.72;1.55;;;;;;;18.32;100.00;98213.69;5033943;28;20025;-69
2022/06/24 00:19:27;;;;;;;3.40;1.27;;;;;;;18.38;100.00;98220.81;5031075;28;20029;-69
2022/06/24 00:22:04;;;;;;;8.98;1.48;;;;;;;18.24;100.00;98228.69;5036064;28;20051;-69
2022/06/24 00:24:30;;;;;;;3.63;1.30;;;;;;;18.13;100.00;98211.41;5043166;28;20044;-69
2022/06/24 00:26:56;;;;;;;7.03;1.20;;;;;;;18.21;100.00;98228.41;5053921;28;20036;-69
2022/06/24 00:29:24;;;;;;;5.97;1.50;;;;;;;18.18;100.00;98216.91;5037589;28;20029;-68
2022/06/24 00:32:08;;;;;;;8.77;1.65;;;;;;;18.07;100.00;98196.03;5022793;28;20060;-68
2022/06/24 00:34:35;;;;;;;8.68;1.42;;;;;;;18.15;100.00;98194.69;5050637;28;20021;-69
2022/06/24 00:37:26;;;;;;;4.55;1.38;;;;;;;18.12;100.00;98207.00;5040051;28;20545;-69
2022/06/24 00:39:54;;;;;;;5.60;1.33;;;;;;;18.10;100.00;98200.16;5029051;28;20506;-69
2022/06/24 00:42:20;;;;;;;4.28;1.10;;;;;;;18.09;100.00;98191.13;5038583;28;20608;-69
2022/06/24 00:45:17;;;;;;;3.58;1.08;;;;;;;18.12;100.00;98204.28;5024581;28;20044;-69
2022/06/24 00:47:44;;;;;;;6.95;1.20;;;;;;;18.09;100.00;98204.81;5041125;28;20479;-69
2022/06/24 00:50:26;;;;;;;3.70;1.15;;;;;;;18.08;100.00;98199.63;5030100;28;20029;-69
2022/06/24 00:52:55;;;;;;;7.43;2.03;;;;;;;18.01;100.00;98199.84;5029460;28;20025;-68
2022/06/24 00:55:31;;;;;;;3.38;1.08;;;;;;;17.89;100.00;98174.59;5026220;28;20029;-68
2022/06/24 00:58:00;;;;;;;4.47;1.25;;;;;;;17.96;100.00;98192.44;5029780;28;20033;-68
2022/06/24 01:00:28;;;;;;;6.28;1.27;;;;;;;17.97;100.00;98190.50;5027845;28;20047;-69
2022/06/24 01:03:04;;;;;;;5.72;1.17;;;;;;;17.83;100.00;98159.25;5032792;28;20406;-68
2022/06/24 01:05:31;;;;;;;5.97;1.30;;;;;;;17.84;100.00;98152.69;5035539;28;20471;-68
2022/06/24 01:07:58;;;;;;;3.45;1.00;;;;;;;17.92;100.00;98157.63;5025871;28;20059;-68
2022/06/24 01:10:25;;;;;;;4.95;1.10;;;;;;;17.98;100.00;98162.06;5038081;28;20025;-69
2022/06/24 01:12:50;;;;;;;3.97;1.00;;;;;;;17.72;100.00;98144.66;5029968;28;20032;-68
2022/06/24 01:15:16;;;;;;;4.68;1.10;;;;;;;17.81;100.00;98161.44;5031834;28;20036;-69
2022/06/24 01:17:41;;;;;;;4.60;1.10;;;;;;;17.81;100.00;98153.22;5037027;28;20037;-68
2022/06/24 01:20:11;;;;;;;8.65;1.48;;;;;;;17.80;100.00;98138.72;5029883;28;20029;-70
2022/06/24 01:22:37;;;;;;;5.30;1.75;;;;;;;17.98;100.00;98131.16;5031057;28;20029;-68
2022/06/24 01:25:03;;;;;;;11.40;2.58;;;;;;;17.89;100.00;98134.41;5026990;28;20033;-68
2022/06/24 01:27:29;;;;;;;4.15;1.20;;;;;;;17.89;100.00;98147.22;5038938;28;20058;-69
2022/06/24 01:29:54;;;;;;;7.95;1.30;;;;;;;17.84;100.00;98130.78;5030436;28;20410;-69
2022/06/24 01:32:20;;;;;;;4.32;1.35;;;;;;;17.92;100.00;98142.06;5037449;28;20391;-69
2022/06/24 01:34:45;;;;;;;5.57;1.00;;;;;;;17.93;100.00;98124.53;5027529;28;20068;-69
2022/06/24 01:37:11;;;;;;;4.25;1.20;;;;;;;17.90;100.00;98119.63;5030992;28;20064;-69
2022/06/24 01:39:36;;;;;;;4.25;1.10;;;;;;;17.83;100.00;98127.25;5038761;28;20055;-68
2022/06/24 01:42:01;;;;;;;4.45;1.50;;;;;;;17.91;100.00;98120.44;5033554;28;20029;-68
2022/06/24 01:44:27;;;;;;;6.15;1.20;;;;;;;17.87;100.00;98116.59;5036383;28;20029;-69
2022/06/24 01:46:52;;;;;;;4.07;1.08;;;;;;;17.78;100.00;98118.97;5032452;28;20021;-69
2022/06/24 01:49:18;;;;;;;5.00;1.25;;;;;;;17.63;100.00;98097.84;5027981;28;20033;-68
2022/06/24 01:51:47;;;;;;;4.82;0.88;;;;;;;17.78;100.00;98115.41;5030784;28;20112;-68
2022/06/24 01:54:12;;;;;;;4.82;1.10;;;;;;;17.72;100.00;98129.06;5038377;28;20078;-68
2022/06/24 01:56:38;;;;;;;4.30;1.30;;;;;;;17.77;100.00;98130.19;5052190;28;20029;-69
2022/06/24 01:59:03;;;;;;;6.78;1.13;;;;;;;17.69;100.00;98129.59;5035731;28;20637;-68
2022/06/24 02:01:29;;;;;;;4.57;1.40;;;;;;;17.63;100.00;98107.94;5025097;28;20029;-68
2022/06/24 02:03:54;;;;;;;3.10;1.40;;;;;;;17.73;100.00;98127.97;5031169;28;20501;-68
2022/06/24 02:06:20;;;;;;;13.27;1.60;;;;;;;17.70;100.00;98136.72;5030347;28;20160;-69
2022/06/24 02:08:46;;;;;;;3.83;1.30;;;;;;;17.44;100.00;98118.53;5039538;28;20024;-69
2022/06/24 02:13:58;;;;;;;3.10;1.38;;;;;;;17.53;100.00;98144.31;5026130;28;20035;-68
2022/06/24 02:16:25;;;;;;;3.90;1.15;;;;;;;17.46;100.00;98132.78;5032100;28;20471;-68
2022/06/24 02:18:50;;;;;;;6.93;1.42;;;;;;;17.59;100.00;98139.69;5029276;28;20108;-68
2022/06/24 02:21:16;;;;;;;4.80;1.52;;;;;;;17.49;100.00;98135.78;5029770;28;20148;-68
2022/06/24 02:23:42;;;;;;;8.40;1.67;;;;;;;17.50;100.00;98136.59;5038197;28;20475;-68
2022/06/24 02:26:09;;;;;;;3.50;1.75;;;;;;;17.48;100.00;98133.34;5021414;28;20028;-70
2022/06/24 02:28:34;;;;;;;7.10;1.38;;;;;;;17.50;100.00;98126.50;5030194;28;20025;-70
2022/06/24 02:31:00;;;;;;;4.03;1.50;;;;;;;17.46;100.00;98121.81;5029600;28;20490;-70
2022/06/24 02:33:27;;;;;;;9.48;1.48;;;;;;;17.43;100.00;98122.38;5024638;28;20025;-70
2022/06/24 02:35:52;;;;;;;12.63;2.03;;;;;;;17.46;100.00;98116.34;5029732;28;20025;-70
2022/06/24 02:38:18;;;;;;;5.40;1.38;;;;;;;17.51;100.00;98119.94;5037659;28;20035;-70
2022/06/24 02:40:47;;;;;;;7.72;1.58;;;;;;;17.45;100.00;98126.47;5026869;28;20025;-70
2022/06/24 02:43:13;;;;;;;4.63;1.52;;;;;;;17.50;100.00;98120.19;5028234;28;20542;-70
2022/06/24 02:45:42;;;;;;;7.88;1.50;;;;;;;17.48;100.00;98125.13;5041226;28;20112;-70
2022/06/24 02:48:08;;;;;;;8.32;1.42;;;;;;;17.49;100.00;98119.38;5037991;28;20030;-70
2022/06/24 02:50:45;;;;;;;4.45;1.60;;;;;;;17.46;100.00;98121.81;5038197;28;20033;-70
2022/06/24 02:53:11;;;;;;;5.88;1.70;;;;;;;17.44;100.00;98113.06;5026637;28;20486;-67
2022/06/24 02:55:37;;;;;;;7.32;1.58;;;;;;;17.35;100.00;98110.00;5031579;28;20030;-69
2022/06/24 02:58:04;;;;;;;5.60;1.50;;;;;;;17.14;100.00;98084.47;5031794;28;20057;-70
2022/06/24 03:00:29;;;;;;;5.72;1.50;;;;;;;17.13;100.00;98091.00;5015444;28;20033;-70
2022/06/24 03:02:54;;;;;;;10.88;1.83;;;;;;;17.29;100.00;98120.09;5024870;28;20029;-70
2022/06/24 03:05:20;;;;;;;4.47;1.50;;;;;;;17.25;100.00;98126.34;5027751;28;20047;-70
2022/06/24 03:07:45;;;;;;;8.43;1.80;;;;;;;17.25;100.00;98118.97;5042861;28;20025;-70
2022/06/24 03:10:10;;;;;;;5.63;1.65;;;;;;;17.23;100.00;98121.13;5030456;28;20490;-70
2022/06/24 03:12:36;;;;;;;2.75;1.48;;;;;;;17.23;100.00;98118.41;5022319;28;20065;-70
2022/06/24 03:15:01;;;;;;;3.35;1.20;;;;;;;17.18;100.00;98125.75;5032390;28;20108;-70
2022/06/24 03:17:26;;;;;;;4.75;1.50;;;;;;;17.21;100.00;98123.31;5034192;28;20026;-70
2022/06/24 03:19:52;;;;;;;10.10;1.73;;;;;;;17.12;100.00;98121.34;5026438;28;20021;-70
2022/06/24 03:22:17;;;;;;;5.28;1.70;;;;;;;17.04;100.00;98128.13;5031994;28;20036;-70
2022/06/24 03:24:42;;;;;;;8.35;1.75;;;;;;;17.07;100.00;98119.38;5031606;28;20415;-70
2022/06/24 03:27:08;;;;;;;5.65;1.75;;;;;;;17.12;100.00;98119.41;5037345;28;20017;-70
2022/06/24 03:29:33;;;;;;;5.25;1.75;;;;;;;17.12;100.00;98124.06;5044479;28;20029;-70
2022/06/24 03:31:58;;;;;;;5.03;1.42;;;;;;;17.05;100.00;98122.38;5040496;28;20128;-70
2022/06/24 03:34:24;;;;;;;6.28;2.00;;;;;;;17.02;100.00;98116.63;5026780;28;20051;-69
2022/06/24 03:36:49;;;;;;;5.60;1.92;;;;;;;17.00;100.00;98124.25;5054111;28;20111;-69
2022/06/24 03:39:15;;;;;;;7.22;2.08;;;;;;;16.95;100.00;98129.66;5022843;28;20037;-69
2022/06/24 03:41:40;;;;;;;8.90;2.30;;;;;;;16.93;100.00;98123.66;5026251;28;20036;-68
2022/06/24 03:44:05;;;;;;;6.28;1.75;;;;;;;16.92;100.00;98127.47;5030128;28;20471;-67
2022/06/24 03:46:31;;;;;;;7.03;2.13;;;;;;;16.86;100.00;98115.66;5036340;28;20122;-67
2022/06/24 03:48:56;;;;;;;6.22;1.60;;;;;;;16.95;100.00;98107.81;5033494;28;20028;-66
2022/06/24 03:51:21;;;;;;;5.38;1.63;;;;;;;16.79;100.00;98096.78;5034405;28;20504;-69
2022/06/24 03:53:46;;;;;;;7.40;2.10;;;;;;;16.93;100.00;98107.28;5013515;28;20033;-67
2022/06/24 03:56:12;;;;;;;3.47;1.70;;;;;;;16.96;100.00;98112.19;5025168;28;20029;-67
2022/06/24 03:58:37;;;;;;;4.78;1.92;;;;;;;17.01;100.00;98114.97;5025251;28;20052;-69
2022/06/24 04:01:03;;;;;;;9.57;2.25;;;;;;;17.04;100.00;98115.25;5024391;28;20035;-67
2022/06/24 04:03:29;;;;;;;9.50;1.90;;;;;;;17.09;100.00;98106.28;5020649;28;20564;-68
2022/06/24 04:05:54;;;;;;;6.63;1.77;;;;;;;17.14;100.00;98109.06;5029735;28;20140;-69
2022/06/24 04:08:19;;;;;;;7.75;2.17;;;;;;;17.13;100.00;98103.84;5035777;28;20108;-70
2022/06/24 04:10:45;;;;;;;6.85;1.75;;;;;;;17.17;100.00;98105.78;5029014;28;20030;-69
2022/06/24 04:13:10;;;;;;;4.60;1.67;;;;;;;17.07;100.00;98113.91;5028587;28;20079;-69
2022/06/24 04:15:35;;;;;;;6.97;1.77;;;;;;;17.17;100.00;98107.72;5043168;28;20028;-68
2022/06/24 04:18:01;;;;;;;13.18;2.05;;;;;;;17.16;100.00;98114.25;5034888;28;20040;-67
2022/06/24 04:20:26;;;;;;;10.73;1.98;;;;;;;17.18;100.00;98104.69;5038330;28;20537;-73
2022/06/24 04:22:51;;;;;;;5.20;1.42;;;;;;;17.25;100.00;98113.50;5032480;28;20025;-77
2022/06/24 04:25:17;;;;;;;8.23;1.95;;;;;;;17.14;100.00;98105.50;5028186;28;20029;-73
2022/06/24 04:27:43;;;;;;;9.98;1.70;;;;;;;17.20;100.00;98108.00;5017983;28;21101;-73
2022/06/24 04:30:10;;;;;;;8.75;1.83;;;;;;;17.14;100.00;98103.59;5036556;28;20485;-75
2022/06/24 04:32:36;;;;;;;7.35;1.85;;;;;;;17.20;100.00;98108.00;5030670;28;20035;-74
2022/06/24 04:35:02;;;;;;;5.65;1.70;;;;;;;17.22;100.00;98100.34;5038067;28;20054;-75
2022/06/24 04:37:27;;;;;;;5.50;1.52;;;;;;;17.23;100.00;98112.94;5032822;28;20029;-74
2022/06/24 04:39:53;;;;;;;5.60;1.70;;;;;;;17.34;100.00;98102.88;5033583;28;20029;-74
2022/06/24 04:42:18;;;;;;;8.07;2.08;;;;;;;17.39;100.00;98113.84;5030550;28;20034;-71
2022/06/24 04:44:43;;;;;;;5.57;2.00;;;;;;;17.38;100.00;98106.75;5038276;28;20375;-74
2022/06/24 04:47:09;;;;;;;4.35;1.85;;;;;;;17.11;100.00;98079.53;5035299;28;20071;-75
2022/06/24 04:49:34;;;;;;;6.20;1.92;;;;;;;17.15;100.00;98080.63;5032759;28;20480;-71
2022/06/24 04:52:00;;;;;;;3.50;1.55;;;;;;;17.39;100.00;98102.09;5031332;28;20033;-72
2022/06/24 04:54:25;;;;;;;6.47;2.22;;;;;;;17.59;100.00;98109.59;5031674;28;20112;-72
2022/06/24 04:56:50;;;;;;;8.23;2.58;;;;;;;17.78;100.00;98102.56;5021692;28;20376;-71
2022/06/24 04:59:16;;;;;;;5.85;1.63;;;;;;;17.91;100.00;98088.41;5026393;28;20029;-69
2022/06/24 05:01:41;;;;;;;8.30;1.90;;;;;;;18.05;100.00;98096.09;5038724;28;20454;-71
2022/06/24 05:04:07;;;;;;;4.18;1.83;;;;;;;18.17;100.00;98100.25;5025103;28;20455;-71
2022/06/24 05:06:32;;;;;;;6.32;1.70;;;;;;;18.20;100.00;98095.34;5022700;28;20029;-69
2022/06/24 05:08:57;;;;;;;6.15;1.48;;;;;;;18.29;100.00;98069.91;5032338;28;20033;-67
2022/06/24 05:11:23;;;;;;;8.07;2.20;;;;;;;18.52;100.00;98089.63;5010986;28;20045;-68
2022/06/24 05:13:49;;;;;;;6.10;2.08;;;;;;;18.57;100.00;98103.34;5031952;28;20035;-67
2022/06/24 05:16:14;;;;;;;5.55;1.38;;;;;;;18.56;100.00;98075.13;5037557;28;20037;-66
2022/06/24 05:18:40;;;;;;;10.10;2.20;;;;;;;18.71;100.00;98104.47;5023198;28;20111;-66
2022/06/24 05:21:05;;;;;;;13.80;1.92;;;;;;;18.86;100.00;98097.34;5029078;28;20025;-63
2022/06/24 05:23:30;;;;;;;8.13;1.63;;;;;;;18.95;100.00;98095.72;5028891;28;21593;-64
2022/06/24 05:25:56;;;;;;;6.13;1.75;;;;;;;19.12;100.00;98085.25;5028764;28;20455;-64
2022/06/24 05:28:21;;;;;;;11.38;1.65;;;;;;;19.41;100.00;98082.75;5031583;28;20074;-63
2022/06/24 05:30:47;;;;;;;8.68;1.73;;;;;;;19.59;100.00;98085.97;5032213;28;20111;-63
2022/06/24 05:33:12;;;;;;;5.13;1.20;;;;;;;19.78;100.00;98089.78;5029447;28;20047;-65
2022/06/24 05:35:37;;;;;;;9.35;1.70;;;;;;;19.91;100.00;98089.19;5032697;28;20491;-68
2022/06/24 05:38:03;;;;;;;4.88;1.58;;;;;;;19.92;100.00;98082.56;5021502;28;20025;-69
2022/06/24 05:40:28;;;;;;;6.43;1.65;;;;;;;20.18;100.00;98095.38;5028516;28;20030;-67
2022/06/24 05:42:53;;;;;;;11.13;1.48;;;;;;;20.29;100.00;98089.50;5033717;28;20036;-67
2022/06/24 05:45:19;;;;;;;4.10;1.63;;;;;;;20.41;100.00;98085.59;5029925;28;20026;-69
2022/06/24 05:47:44;;;;;;;5.30;1.35;;;;;;;20.56;100.00;98085.50;5030713;28;20028;-69
2022/06/24 05:50:09;;;;;;;7.75;1.60;;;;;;;20.86;100.00;98078.97;5033934;28;20026;-68
2022/06/24 05:55:19;;;;;;;4.13;1.60;;;;;;;21.17;100.00;98075.94;5024327;28;20041;-65
2022/06/24 05:57:44;;;;;;;5.80;1.80;;;;;;;21.15;100.00;98087.22;5038148;28;20033;-66
2022/06/24 06:00:10;;;;;;;9.45;1.77;;;;;;;21.21;100.00;98064.03;5032637;28;20029;-70
2022/06/24 06:02:35;;;;;;;9.57;1.77;;;;;;;21.39;100.00;98073.53;5029820;28;20034;-67
2022/06/24 06:05:01;;;;;;;11.70;1.88;;;;;;;21.52;100.00;98068.44;5030816;28;20126;-68
2022/06/24 06:07:27;;;;;;;9.55;1.70;;;;;;;21.70;100.00;98069.63;5036186;28;20082;-73
2022/06/24 06:09:52;;;;;;;9.38;1.90;;;;;;;21.69;100.00;98070.72;5027773;28;20160;-73
2022/06/24 06:12:18;;;;;;;9.02;1.75;;;;;;;21.99;100.00;98075.03;5026361;28;20033;-72
2022/06/24 06:14:44;;;;;;;8.30;1.70;;;;;;;21.93;100.00;98071.53;5030384;28;20041;-73
2022/06/24 06:17:10;;;;;;;7.88;1.98;;;;;;;22.21;100.00;98072.53;5029175;28;20506;-73
2022/06/24 06:19:35;;;;;;;5.70;1.88;;;;;;;22.02;100.00;98047.69;5040172;28;20033;-74
2022/06/24 06:22:02;;;;;;;6.80;1.60;;;;;;;22.13;100.00;98064.91;5023306;28;20480;-74
2022/06/24 06:24:29;;;;;;;10.88;1.88;;;;;;;22.53;100.00;98074.53;5027558;28;20052;-74
2022/06/24 06:26:54;;;;;;;8.20;1.52;;;;;;;22.62;100.00;98069.16;5027530;28;20025;-72
2022/06/24 06:29:19;;;;;;;9.55;1.85;;;;;;;22.96;100.00;98066.13;5023612;28;20029;-72
2022/06/24 06:31:45;;;;;;;5.20;1.60;;;;;;;22.79;100.00;98063.09;5030030;28;20028;-72
2022/06/24 06:34:10;;;;;;;9.65;1.60;;;;;;;22.98;100.00;98090.69;5034130;28;20507;-71
2022/06/24 06:36:37;;;;;;;5.43;1.95;;;;;;;22.69;100.00;98079.81;5022631;28;20501;-72
2022/06/24 06:39:02;;;;;;;11.05;2.20;;;;;;;22.68;100.00;98092.75;5033163;28;20450;-71
2022/06/24 06:41:27;;;;;;;6.20;1.52;;;;;;;22.57;100.00;98085.78;5021984;28;20057;-73
2022/06/24 06:43:53;;;;;;;8.30;1.67;;;;;;;22.37;100.00;98100.69;5037533;28;20064;-73
2022/06/24 06:46:18;;;;;;;6.82;1.83;;;;;;;22.18;100.00;98097.06;5030321;28;20475;-74
2022/06/24 06:48:43;;;;;;;9.50;1.73;;;;;;;21.75;100.00;98091.56;5026079;28;20154;-72
2022/06/24 06:51:09;;;;;;;5.63;1.70;;;;;;;21.81;100.00;98084.88;5030466;28;20033;-71
2022/06/24 06:53:34;;;;;;;4.05;1.40;;;;;;;22.15;100.00;98090.22;5035470;28;20479;-74
2022/06/24 06:56:00;;;;;;;11.13;2.05;;;;;;;22.68;100.00;98098.28;5035632;28;20513;-73
2022/06/24 06:58:25;;;;;;;11.90;2.15;;;;;;;23.25;100.00;98076.13;5029098;28;20037;-74
2022/06/24 07:00:51;;;;;;;10.10;1.75;;;;;;;23.63;100.00;98081.44;5033180;28;20067;-74
2022/06/24 07:03:17;;;;;;;6.40;1.70;;;;;;;23.73;100.00;98080.47;5032623;28;20036;-74
2022/06/24 07:05:43;;;;;;;10.15;1.70;;;;;;;24.37;97.08;98061.13;5036206;28;20017;-70
2022/06/24 07:08:10;;;;;;;6.72;1.70;;;;;;;25.90;81.43;98065.50;5035480;28;20474;-73
2022/06/24 07:10:37;;;;;;;9.23;1.60;;;;;;;28.07;66.39;98078.28;5029747;28;20021;-72
2022/06/24 07:13:02;;;;;;;7.20;1.60;;;;;;;29.24;60.21;98080.31;5041337;28;20040;-75
2022/06/24 07:15:28;;;;;;;4.78;1.20;;;;;;;30.67;53.43;98067.41;5028618;28;20430;-71
2022/06/24 07:17:53;;;;;;;8.30;1.73;;;;;;;31.59;50.62;98076.75;5032020;28;20048;-73
2022/06/24 07:20:18;;;;;;;9.57;1.63;;;;;;;33.31;47.13;98056.22;5032377;28;20021;-73
2022/06/24 07:22:44;;;;;;;4.68;1.38;;;;;;;34.47;42.62;98065.31;5032831;28;20033;-69
2022/06/24 07:25:09;;;;;;;5.70;1.70;;;;;;;33.88;42.09;98064.00;5033063;28;20112;-71
2022/06/24 07:27:35;;;;;;;8.65;1.50;;;;;;;33.76;43.32;98062.22;5034313;28;20022;-72
2022/06/24 07:30:03;;;;;;;11.73;1.80;;;;;;;35.04;41.29;98063.25;5040724;28;20035;-69
2022/06/24 07:32:28;;;;;;;4.80;1.50;;;;;;;33.15;44.39;98067.53;5045539;28;20545;-72
2022/06/24 07:34:54;;;;;;;7.38;1.60;;;;;;;33.31;43.81;98027.38;5032979;28;20060;-75
2022/06/24 07:37:19;;;;;;;8.30;1.83;;;;;;;34.14;41.03;98046.38;5036497;28;20072;-75
2022/06/24 07:39:44;;;;;;;4.82;1.50;;;;;;;34.73;41.79;98055.25;5041315;28;20028;-76
2022/06/24 07:42:09;;;;;;;4.68;1.20;;;;;;;33.06;45.18;98052.13;5020284;28;20442;-75
2022/06/24 07:44:35;;;;;;;8.38;1.80;;;;;;;30.09;52.73;98073.19;5033783;28;20025;-76
2022/06/24 07:47:00;;;;;;;6.68;1.50;;;;;;;27.68;56.98;98055.25;5042240;28;20021;-72
2022/06/24 07:49:25;;;;;;;6.60;1.30;;;;;;;26.18;69.68;98073.56;5041331;28;20025;-71
2022/06/24 07:51:51;;;;;;;6.65;1.70;;;;;;;25.95;75.11;98070.09;5026633;28;20098;-71
2022/06/24 07:54:16;;;;;;;6.47;1.60;;;;;;;25.11;81.47;98066.25;5035256;28;20044;-73
2022/06/24 07:56:56;;;;;;;5.60;1.70;;;;;;;24.88;83.56;98060.72;5024779;28;20382;-70
2022/06/24 07:59:25;;;;;;;5.15;1.23;;;;;;;24.78;86.84;98065.72;5042227;28;20044;-73
2022/06/24 08:01:52;;;;;;;5.00;1.65;;;;;;;24.56;87.08;98072.06;5029126;28;20067;-71
2022/06/24 08:04:18;;;;;;;7.93;1.60;;;;;;;24.72;89.72;98051.19;5029538;28;20030;-73
2022/06/24 08:06:49;;;;;;;6.72;1.40;;;;;;;25.67;78.28;98058.38;5039388;28;20112;-71
2022/06/24 08:09:19;;;;;;;9.80;1.60;;;;;;;28.02;59.08;98041.53;5031598;28;20411;-69
2022/06/24 08:11:45;;;;;;;11.73;2.40;;;;;;;28.74;54.98;98043.13;5028654;28;20021;-71
2022/06/24 08:14:10;;;;;;;5.90;1.58;;;;;;;30.20;51.41;98037.25;5029948;28;20029;-70
2022/06/24 08:16:36;;;;;;;6.68;1.65;;;;;;;29.57;51.74;98040.41;5037084;28;20371;-72
2022/06/24 08:19:02;;;;;;;5.50;1.38;;;;;;;29.26;51.28;98052.91;5043632;28;20025;-74
2022/06/24 08:21:27;;;;;;;3.50;1.30;;;;;;;28.97;54.48;98042.72;5043372;28;20402;-72
2022/06/24 08:23:53;;;;;;;6.00;1.40;;;;;;;28.11;62.18;98012.50;5031095;28;20111;-71
2022/06/24 08:26:18;;;;;;;6.20;1.80;;;;;;;27.52;67.65;98041.09;5030595;28;20117;-70
2022/06/24 08:28:44;;;;;;;5.43;1.52;;;;;;;27.83;62.06;98016.94;5033188;28;20441;-72
2022/06/24 08:31:10;;;;;;;9.98;1.65;;;;;;;27.56;63.24;98040.41;5031460;28;20471;-72
2022/06/24 08:33:35;;;;;;;6.22;1.75;;;;;;;27.66;62.53;98031.72;5027323;28;20075;-72
2022/06/24 08:36:01;;;;;;;6.88;1.70;;;;;;;27.47;65.09;98023.78;5029238;28;20080;-72
2022/06/24 08:38:27;;;;;;;6.97;1.60;;;;;;;26.98;65.75;98026.06;5029758;28;20045;-68
2022/06/24 08:40:54;;;;;;;5.10;1.40;;;;;;;28.29;63.53;98015.13;5028627;28;20717;-75
2022/06/24 08:43:23;;;;;;;8.70;1.90;;;;;;;30.69;52.47;98026.78;5027456;28;20558;-73
2022/06/24 08:45:49;;;;;;;8.23;1.55;;;;;;;31.00;48.32;98008.53;5033686;28;20390;-74
2022/06/24 08:48:16;;;;;;;6.68;1.48;;;;;;;32.67;46.29;98015.69;5025262;28;20036;-70
2022/06/24 08:50:42;;;;;;;6.25;1.55;;;;;;;34.35;42.46;98012.19;5032006;28;20048;-71
2022/06/24 08:53:10;;;;;;;3.50;1.30;;;;;;;36.82;38.87;98009.53;5027893;28;20402;-71
2022/06/24 08:55:38;;;;;;;4.47;1.27;;;;;;;36.82;37.62;98008.72;5029205;28;20029;-71
2022/06/24 08:58:09;;;;;;;8.90;1.50;;;;;;;35.94;38.06;98016.28;5045074;28;20482;-71
2022/06/24 09:00:35;;;;;;;5.20;1.45;;;;;;;35.81;38.84;98006.53;5032002;28;20282;-74
2022/06/24 09:03:01;;;;;;;7.45;1.38;;;;;;;36.59;37.48;98006.22;5033512;28;20037;-74
2022/06/24 09:05:27;;;;;;;6.30;1.48;;;;;;;35.41;39.70;98006.19;5028094;28;20022;-74
2022/06/24 09:08:06;;;;;;;7.05;1.40;;;;;;;34.52;41.00;98011.59;5032969;28;20017;-74
2022/06/24 09:10:32;;;;;;;6.28;1.30;;;;;;;36.31;39.59;97998.41;5027305;28;20032;-75
2022/06/24 09:12:58;;;;;;;7.10;1.45;;;;;;;38.14;35.05;97985.44;5022885;28;20034;-74
2022/06/24 09:15:23;;;;;;;3.20;0.95;;;;;;;39.01;33.33;97989.56;5043394;28;20393;-72
2022/06/24 09:17:49;;;;;;;7.43;1.20;;;;;;;38.39;32.07;97979.72;5025666;28;20076;-73
2022/06/24 09:20:15;;;;;;;5.07;1.02;;;;;;;39.30;33.16;97990.19;5032086;28;20492;-72
2022/06/24 09:22:41;;;;;;;3.33;1.00;;;;;;;36.74;35.28;97991.00;5025851;28;20071;-74
2022/06/24 09:25:07;;;;;;;4.05;1.10;;;;;;;36.14;37.43;98000.75;5044024;28;20033;-72
2022/06/24 09:27:33;;;;;;;2.03;0.93;;;;;;;38.32;34.06;97982.56;5023051;28;20470;-73
2022/06/24 09:29:59;;;;;;;5.28;1.33;;;;;;;39.06;33.21;97968.50;5029793;28;20030;-74
2022/06/24 09:32:24;;;;;;;6.05;1.02;;;;;;;38.58;32.68;97987.75;5039383;28;20021;-73
2022/06/24 09:35:05;;;;;;;5.85;1.50;;;;;;;37.74;34.37;97978.25;5015604;28;20630;-75
2022/06/24 09:37:39;;;;;;;3.53;1.17;;;;;;;38.05;33.80;97985.88;5023205;28;20072;-75
2022/06/24 09:40:18;;;;;;;3.38;1.10;;;;;;;39.29;31.20;97984.94;5039227;28;20033;-75
2022/06/24 09:42:51;;;;;;;2.60;0.90;;;;;;;39.42;32.20;97980.41;5031090;28;20127;-71
2022/06/24 09:45:16;;;;;;;3.67;0.93;;;;;;;36.91;34.29;97980.16;5032288;28;20032;-70
2022/06/24 09:47:47;;;;;;;3.63;0.90;;;;;;;35.14;37.85;97987.88;5027681;28;20486;-68
2022/06/24 09:50:12;;;;;;;3.38;1.02;;;;;;;33.79;39.90;97989.31;5029349;28;20037;-68
2022/06/24 09:52:39;;;;;;;3.47;1.30;;;;;;;31.76;43.74;97991.69;5028801;28;20029;-68
2022/06/24 09:55:05;;;;;;;4.15;1.20;;;;;;;30.71;46.60;97995.72;5038329;28;20067;-68
2022/06/24 09:57:32;;;;;;;5.50;1.35;;;;;;;29.47;48.87;97995.13;5028373;28;20056;-68
2022/06/24 10:02:43;;;;;;;3.90;1.20;;;;;;;28.62;49.87;97987.38;5025993;28;20033;-67
2022/06/24 10:05:09;;;;;;;3.63;1.50;;;;;;;29.20;50.41;97991.03;5032220;28;20025;-67
2022/06/24 10:07:36;;;;;;;6.20;1.58;;;;;;;30.62;48.64;97998.66;5032638;28;20529;-68
2022/06/24 10:10:04;;;;;;;5.07;1.27;;;;;;;30.43;48.49;97992.94;5027956;28;20821;-68
2022/06/24 10:12:34;;;;;;;5.23;1.20;;;;;;;29.96;49.62;97982.34;5038722;28;20037;-68
2022/06/24 10:15:00;;;;;;;5.53;1.58;;;;;;;29.01;50.31;97972.06;5030173;28;20441;-67
2022/06/24 10:17:27;;;;;;;5.55;1.38;;;;;;;28.61;50.61;97981.00;5024014;28;20038;-68
2022/06/24 10:19:54;;;;;;;3.10;1.27;;;;;;;28.14;53.27;97994.34;5025265;28;20033;-74
2022/06/24 10:22:41;;;;;;;3.63;1.20;;;;;;;28.52;54.25;97985.03;5031559;28;20033;-71
2022/06/24 10:25:07;;;;;;;3.30;1.48;;;;;;;29.01;50.74;97988.78;5017984;28;20109;-68
2022/06/24 10:28:00;;;;;;;2.80;0.90;;;;;;;31.43;43.20;97992.88;5021910;28;20143;-69
2022/06/24 10:30:40;;;;;;;4.15;1.45;;;;;;;33.81;40.44;97978.53;5034985;28;20033;-68
2022/06/24 10:33:15;;;;;;;2.95;1.20;;;;;;;35.33;36.76;97979.19;5020261;28;20029;-68
2022/06/24 10:36:00;;;;;;;6.80;1.40;;;;;;;36.45;34.87;97986.44;5026962;28;20029;-69
2022/06/24 10:38:37;;;;;;;3.22;0.90;;;;;;;37.52;32.45;97981.09;5023169;28;20029;-68
2022/06/24 10:41:04;;;;;;;3.33;1.00;;;;;;;37.64;31.64;97980.66;5029158;28;20064;-69
2022/06/24 10:43:34;;;;;;;3.22;0.60;;;;;;;35.45;33.08;97966.84;5032644;28;20506;-68
2022/06/24 10:46:11;;;;;;;1.88;0.85;;;;;;;37.38;31.37;97972.59;5021229;28;20065;-69
2022/06/24 10:48:51;;;;;;;5.07;0.77;;;;;;;38.62;31.94;97969.94;5028279;28;20037;-69
2022/06/24 10:51:18;;;;;;;5.68;0.98;;;;;;;37.75;32.43;97965.75;5032943;28;20033;-69
2022/06/24 10:54:01;;;;;;;4.22;1.00;;;;;;;37.63;32.82;97967.78;5036313;28;20033;-68
2022/06/24 10:56:49;;;;;;;3.88;1.23;;;;;;;34.43;37.22;97972.59;5026418;28;20037;-69
2022/06/24 10:59:20;;;;;;;3.22;0.90;;;;;;;34.62;38.31;97974.44;5026986;28;20036;-67
2022/06/24 11:01:48;;;;;;;3.47;0.90;;;;;;;35.80;36.29;97971.97;5027070;28;20033;-68
2022/06/24 11:04:24;;;;;;;3.30;1.00;;;;;;;37.52;31.66;97967.00;5025756;28;20022;-71
2022/06/24 11:07:15;;;;;;;3.17;0.90;;;;;;;38.30;30.47;97965.22;5023001;28;20034;-69
2022/06/24 11:09:41;;;;;;;3.40;0.75;;;;;;;38.55;29.37;97960.31;5036116;28;20032;-70
2022/06/24 11:12:29;;;;;;;4.47;0.80;;;;;;;39.52;28.83;97953.25;5022971;28;20025;-70
2022/06/24 11:14:55;;;;;;;3.30;0.70;;;;;;;37.05;29.38;97947.19;5026318;28;20703;-70
2022/06/24 11:17:26;;;;;;;3.95;0.68;;;;;;;37.63;30.00;97950.03;5030732;28;20113;-69
2022/06/24 11:19:52;;;;;;;3.38;0.70;;;;;;;37.16;32.03;97949.22;5018429;28;20042;-70
2022/06/24 11:22:19;;;;;;;2.75;0.90;;;;;;;34.65;34.14;97947.59;5035903;28;20041;-69
2022/06/24 11:24:47;;;;;;;3.30;0.90;;;;;;;32.55;39.55;97951.47;5019751;28;20021;-68
2022/06/24 11:27:12;;;;;;;;;;;;;;;32.07;40.50;97954.47;5026273;28;20035;-68
2022/06/24 11:29:52;;;;;;;2.75;0.93;;;;;;;33.44;39.39;97960.69;5031771;28;19913;-69
2022/06/24 11:32:17;;;;;;;3.33;0.80;;;;;;;35.82;34.14;97955.50;5036413;28;20028;-73
2022/06/24 11:34:44;;;;;;;2.38;0.77;;;;;;;37.87;31.65;97943.53;5037390;28;20032;-70
2022/06/24 11:37:10;;;;;;;2.00;0.80;;;;;;;38.67;30.09;97947.69;5027667;28;20486;-69
2022/06/24 11:39:35;;;;;;;3.95;0.80;;;;;;;37.07;31.50;97949.59;5025570;28;20040;-68